createdAt,value
2023-05-10T00:01:35.125Z,5.18
2023-05-10T00:04:03.354Z,5.30
2023-05-10T00:06:32.564Z,5.13
2023-05-10T00:09:00.845Z,5.30
2023-05-10T00:11:29.115Z,5.57
2023-05-10T00:14:00.967Z,6.13
2023-05-10T00:16:29.357Z,5.65
2023-05-10T00:18:57.590Z,5.68
2023-05-10T00:21:25.858Z,7.20
2023-05-10T00:23:54.072Z,5.05
2023-05-10T00:26:22.426Z,4.65
2023-05-10T00:28:54.158Z,4.25
2023-05-10T00:31:22.665Z,3.88
2023-05-10T00:33:52.355Z,3.97
2023-05-10T00:36:20.640Z,3.50
2023-05-10T00:38:48.936Z,3.80
2023-05-10T00:41:17.660Z,3.17
2023-05-10T00:43:47.545Z,4.18
2023-05-10T00:46:16.898Z,3.30
2023-05-10T00:48:45.888Z,3.30
2023-05-10T00:51:14.769Z,3.53
2023-05-10T00:53:43.890Z,2.90
2023-05-10T00:56:12.187Z,2.70
2023-05-10T00:58:41.486Z,3.00
2023-05-10T01:01:10.814Z,3.33
2023-05-10T01:03:40.749Z,2.83
2023-05-10T01:06:10.938Z,2.90
2023-05-10T01:08:39.520Z,2.88
2023-05-10T01:11:07.826Z,2.58
2023-05-10T01:13:41.994Z,2.80
2023-05-10T01:16:11.125Z,2.90
2023-05-10T01:18:45.250Z,2.78
2023-05-10T01:21:24.153Z,2.70
2023-05-10T01:24:13.721Z,2.90
2023-05-10T01:27:04.450Z,2.80
2023-05-10T01:30:21.821Z,2.90
2023-05-10T01:32:59.916Z,2.95
2023-05-10T01:35:47.721Z,2.70
2023-05-10T01:38:21.042Z,2.30
2023-05-10T01:41:10.766Z,2.53
2023-05-10T01:44:16.919Z,2.67
2023-05-10T01:46:49.876Z,2.95
2023-05-10T01:49:27.833Z,2.60
2023-05-10T01:52:02.912Z,3.35
2023-05-10T01:54:32.246Z,2.97
2023-05-10T01:57:09.913Z,2.83
2023-05-10T01:59:42.063Z,2.63
2023-05-10T02:02:13.212Z,2.67
2023-05-10T02:04:43.201Z,2.78
2023-05-10T02:07:12.707Z,2.80
2023-05-10T02:09:45.103Z,3.22
2023-05-10T02:12:16.627Z,2.80
2023-05-10T02:14:46.265Z,2.85
2023-05-10T02:17:15.362Z,3.10
2023-05-10T02:19:44.327Z,2.65
2023-05-10T02:22:13.898Z,3.00
2023-05-10T02:24:42.893Z,2.50
2023-05-10T02:27:12.359Z,2.83
2023-05-10T02:29:41.160Z,3.20
2023-05-10T02:32:12.973Z,2.95
2023-05-10T02:34:41.952Z,2.20
2023-05-10T02:37:11.133Z,2.65
2023-05-10T02:39:44.731Z,2.50
2023-05-10T02:42:19.731Z,3.00
2023-05-10T02:44:51.582Z,2.83
2023-05-10T02:47:20.640Z,2.88
2023-05-10T02:49:50.424Z,3.30
2023-05-10T02:52:30.252Z,2.78
2023-05-10T02:55:04.632Z,3.03
2023-05-10T02:57:39.809Z,2.88
2023-05-10T03:00:08.675Z,3.13
2023-05-10T03:02:37.411Z,3.20
2023-05-10T03:05:06.136Z,2.88
2023-05-10T03:07:35.318Z,2.78
2023-05-10T03:10:04.537Z,3.33
2023-05-10T03:13:01.373Z,3.30
2023-05-10T03:15:49.823Z,3.40
2023-05-10T03:18:24.448Z,3.22
2023-05-10T03:21:00.373Z,4.10
2023-05-10T03:23:35.254Z,3.55
2023-05-10T03:26:05.920Z,3.80
2023-05-10T03:28:36.309Z,3.78
2023-05-10T03:31:07.644Z,3.90
2023-05-10T03:33:36.379Z,3.35
2023-05-10T03:36:04.911Z,4.25
2023-05-10T03:38:33.200Z,3.55
2023-05-10T03:41:01.485Z,3.90
2023-05-10T03:43:29.698Z,3.75
2023-05-10T03:45:57.934Z,4.00
2023-05-10T03:48:26.186Z,3.65
2023-05-10T03:50:55.209Z,3.88
2023-05-10T03:53:24.116Z,3.40
2023-05-10T03:55:52.421Z,3.50
2023-05-10T03:58:20.867Z,3.65
2023-05-10T04:00:49.240Z,3.60
2023-05-10T04:03:17.836Z,3.83
2023-05-10T04:05:46.098Z,3.65
2023-05-10T04:08:15.836Z,3.75
2023-05-10T04:10:44.580Z,3.92
2023-05-10T04:13:12.972Z,3.53
2023-05-10T04:15:41.257Z,3.80
2023-05-10T04:18:09.570Z,3.28
2023-05-10T04:20:37.754Z,4.10
2023-05-10T04:23:05.979Z,3.53
2023-05-10T04:25:36.595Z,3.45
2023-05-10T04:28:04.937Z,3.92
2023-05-10T04:30:33.190Z,3.95
2023-05-10T04:33:02.908Z,3.60
2023-05-10T04:35:31.350Z,3.50
2023-05-10T04:37:59.550Z,3.13
2023-05-10T04:40:28.160Z,3.75
2023-05-10T04:42:56.608Z,3.13
2023-05-10T04:45:24.836Z,3.05
2023-05-10T04:47:53.019Z,3.60
2023-05-10T04:50:21.274Z,3.22
2023-05-10T04:52:49.480Z,3.20
2023-05-10T04:55:17.909Z,3.42
2023-05-10T04:57:46.124Z,3.83
2023-05-10T05:00:14.959Z,3.53
2023-05-10T05:02:47.051Z,2.78
2023-05-10T05:05:15.397Z,3.38
2023-05-10T05:07:43.620Z,3.65
2023-05-10T05:10:11.861Z,3.15
2023-05-10T05:12:40.129Z,3.33
2023-05-10T05:15:10.337Z,3.60
2023-05-10T05:17:38.715Z,3.13
2023-05-10T05:20:07.652Z,3.28
2023-05-10T05:22:36.850Z,3.03
2023-05-10T05:25:05.519Z,3.65
2023-05-10T05:27:33.857Z,3.53
2023-05-10T05:30:02.094Z,3.25
2023-05-10T05:32:32.428Z,3.08
2023-05-10T05:35:00.674Z,3.80
2023-05-10T05:37:28.940Z,3.72
2023-05-10T05:39:57.251Z,3.97
2023-05-10T05:42:25.615Z,3.45
2023-05-10T05:44:53.829Z,3.75
2023-05-10T05:47:22.299Z,3.55
2023-05-10T05:49:50.509Z,3.38
2023-05-10T05:52:18.953Z,4.07
2023-05-10T05:54:47.146Z,4.05
2023-05-10T05:57:15.321Z,3.25
2023-05-10T05:59:44.966Z,3.53
2023-05-10T06:02:13.284Z,3.95
2023-05-10T06:04:44.419Z,3.22
2023-05-10T06:07:13.041Z,3.30
2023-05-10T06:09:41.246Z,3.47
2023-05-10T06:12:09.493Z,2.92
2023-05-10T06:14:37.671Z,3.05
2023-05-10T06:17:06.289Z,3.58
2023-05-10T06:19:34.569Z,3.22
2023-05-10T06:22:03.525Z,3.10
2023-05-10T06:24:31.799Z,3.60
2023-05-10T06:27:01.515Z,3.60
2023-05-10T06:29:29.740Z,3.13
2023-05-10T06:31:58.025Z,3.50
2023-05-10T06:34:26.819Z,4.78
2023-05-10T06:36:55.067Z,3.47
2023-05-10T06:39:23.330Z,3.15
2023-05-10T06:41:51.653Z,2.83
2023-05-10T06:44:21.237Z,2.88
2023-05-10T06:46:49.498Z,3.35
2023-05-10T06:49:17.814Z,2.95
2023-05-10T06:51:46.168Z,2.72
2023-05-10T06:54:14.389Z,3.30
2023-05-10T06:56:42.673Z,3.10
2023-05-10T06:59:10.948Z,2.88
2023-05-10T07:01:39.553Z,3.03
2023-05-10T07:04:08.636Z,3.45
2023-05-10T07:06:37.087Z,2.97
2023-05-10T07:09:05.280Z,3.28
2023-05-10T07:11:33.692Z,3.00
2023-05-10T07:14:02.105Z,3.15
2023-05-10T07:16:30.360Z,3.33
2023-05-10T07:18:58.605Z,3.65
2023-05-10T07:21:29.741Z,3.28
2023-05-10T07:23:58.176Z,3.03
2023-05-10T07:26:26.817Z,3.70
2023-05-10T07:28:55.125Z,3.15
2023-05-10T07:31:23.398Z,2.85
2023-05-10T07:33:51.738Z,2.88
2023-05-10T07:36:19.952Z,3.35
2023-05-10T07:38:48.178Z,3.63
2023-05-10T07:41:16.596Z,3.33
2023-05-10T07:43:45.281Z,3.35
2023-05-10T07:46:13.616Z,3.50
2023-05-10T07:48:42.367Z,3.22
2023-05-10T07:51:10.722Z,4.07
2023-05-10T07:53:39.553Z,3.75
2023-05-10T07:56:33.388Z,4.28
2023-05-10T08:01:35.262Z,3.60
2023-05-10T08:04:03.824Z,3.63
2023-05-10T08:06:32.237Z,4.10
2023-05-10T08:09:00.491Z,3.63
2023-05-10T08:11:28.897Z,4.10
2023-05-10T08:13:57.191Z,4.65
2023-05-10T08:16:25.557Z,3.95
2023-05-10T08:18:56.314Z,4.00
2023-05-10T08:21:24.671Z,4.30
2023-05-10T08:23:52.934Z,3.75
2023-05-10T08:26:22.506Z,4.60
2023-05-10T08:28:51.036Z,3.72
2023-05-10T08:31:19.722Z,4.00
2023-05-10T08:33:47.914Z,3.92
2023-05-10T08:36:20.749Z,3.75
2023-05-10T08:38:55.748Z,3.92
2023-05-10T08:41:26.860Z,3.85
2023-05-10T08:43:55.990Z,4.55
2023-05-10T08:46:25.156Z,4.13
2023-05-10T08:48:54.641Z,3.80
2023-05-10T08:51:28.156Z,3.95
2023-05-10T08:53:57.387Z,4.38
2023-05-10T08:56:25.780Z,3.63
2023-05-10T08:58:54.150Z,4.35
2023-05-10T09:01:23.498Z,4.45
2023-05-10T09:03:52.763Z,4.25
2023-05-10T09:06:21.431Z,4.22
2023-05-10T09:08:49.911Z,4.05
2023-05-10T09:11:18.801Z,4.10
2023-05-10T09:13:49.139Z,3.92
2023-05-10T09:16:21.857Z,3.60
2023-05-10T09:18:50.991Z,4.40
2023-05-10T09:21:21.639Z,4.53
2023-05-10T09:23:51.206Z,4.30
2023-05-10T09:26:24.739Z,4.28
2023-05-10T09:31:26.832Z,3.80
2023-05-10T09:33:55.389Z,4.25
2023-05-10T09:36:23.740Z,4.18
2023-05-10T09:38:53.774Z,4.13
2023-05-10T09:41:26.033Z,3.50
2023-05-10T09:43:57.956Z,3.92
2023-05-10T09:46:26.963Z,4.38
2023-05-10T09:48:55.315Z,5.18
2023-05-10T09:51:25.039Z,4.47
2023-05-10T09:54:12.915Z,4.22
2023-05-10T09:56:41.770Z,5.32
2023-05-10T09:59:13.370Z,4.82
2023-05-10T10:01:42.682Z,4.50
2023-05-10T10:04:12.213Z,4.45
2023-05-10T10:06:43.277Z,4.80
2023-05-10T10:09:11.717Z,5.55
2023-05-10T10:11:42.492Z,4.95
2023-05-10T10:14:12.539Z,5.60
2023-05-10T10:16:48.700Z,5.70
2023-05-10T10:19:29.108Z,5.57
2023-05-10T10:21:57.426Z,5.78
2023-05-10T10:24:25.689Z,5.88
2023-05-10T10:26:58.317Z,5.07
2023-05-10T10:29:38.219Z,5.10
2023-05-10T10:32:21.561Z,5.75
2023-05-10T10:34:50.669Z,5.30
2023-05-10T10:37:19.751Z,4.93
2023-05-10T10:39:51.461Z,5.40
2023-05-10T10:42:56.822Z,5.10
2023-05-10T10:45:26.790Z,5.00
2023-05-10T10:48:22.612Z,4.72
2023-05-10T10:51:01.400Z,5.60
2023-05-10T10:53:29.956Z,5.25
2023-05-10T10:56:16.060Z,4.57
2023-05-10T10:58:54.816Z,4.93
2023-05-10T11:01:23.239Z,5.28
2023-05-10T11:04:11.753Z,5.32
2023-05-10T11:06:41.254Z,4.90
2023-05-10T11:09:11.493Z,4.88
2023-05-10T11:11:56.523Z,4.97
2023-05-10T11:14:25.221Z,4.75
2023-05-10T11:16:53.797Z,4.13
2023-05-10T11:19:22.163Z,4.70
2023-05-10T11:22:16.601Z,5.18
2023-05-10T11:24:59.618Z,4.20
2023-05-10T11:27:27.877Z,4.28
2023-05-10T11:29:56.102Z,4.38
2023-05-10T11:32:24.707Z,4.30
2023-05-10T11:34:52.984Z,4.68
2023-05-10T11:37:21.216Z,4.72
2023-05-10T11:39:49.442Z,4.90
2023-05-10T11:42:17.916Z,4.93
2023-05-10T11:44:48.036Z,4.28
2023-05-10T11:47:16.349Z,5.05
2023-05-10T11:49:48.905Z,4.82
2023-05-10T11:52:19.666Z,4.70
2023-05-10T11:54:54.142Z,4.85
2023-05-10T11:57:27.030Z,5.22
2023-05-10T11:59:57.316Z,5.15
2023-05-10T12:02:26.058Z,5.18
2023-05-10T12:04:56.243Z,5.10
2023-05-10T12:07:24.589Z,5.20
2023-05-10T12:10:09.387Z,4.80
2023-05-10T12:12:40.031Z,5.22
2023-05-10T12:15:32.513Z,4.90
2023-05-10T12:18:00.941Z,4.70
2023-05-10T12:20:29.775Z,4.88
2023-05-10T12:23:04.180Z,5.25
2023-05-10T12:25:37.057Z,4.65
2023-05-10T12:28:10.181Z,4.45
2023-05-10T12:30:39.880Z,3.90
2023-05-10T12:33:12.944Z,3.85
2023-05-10T12:35:50.504Z,4.10
2023-05-10T12:38:39.199Z,4.00
2023-05-10T12:41:10.754Z,3.85
2023-05-10T12:43:40.389Z,3.97
2023-05-10T12:46:09.744Z,4.00
2023-05-10T12:48:39.442Z,3.70
2023-05-10T12:51:13.859Z,3.65
2023-05-10T12:53:45.127Z,3.80
2023-05-10T12:56:14.288Z,3.47
2023-05-10T12:58:42.634Z,3.72
2023-05-10T13:01:11.113Z,3.83
2023-05-10T13:03:39.305Z,3.97
2023-05-10T13:06:07.568Z,3.88
2023-05-10T13:08:35.919Z,3.33
2023-05-10T13:11:04.630Z,3.33
2023-05-10T13:13:32.930Z,5.00
2023-05-10T13:16:01.095Z,4.30
2023-05-10T13:18:29.331Z,4.10
2023-05-10T13:20:57.628Z,4.57
2023-05-10T13:23:25.915Z,3.70
2023-05-10T13:25:54.054Z,3.60
2023-05-10T13:28:22.243Z,3.45
2023-05-10T13:30:50.572Z,4.40
2023-05-10T13:33:18.788Z,4.50
2023-05-10T13:35:47.024Z,4.78
2023-05-10T13:38:15.226Z,4.45
2023-05-10T13:40:43.455Z,4.78
2023-05-10T13:43:11.770Z,3.72
2023-05-10T13:45:40.035Z,2.70
2023-05-10T13:48:08.319Z,3.50
2023-05-10T13:50:36.671Z,3.17
2023-05-10T13:53:04.806Z,3.63
2023-05-10T13:55:33.176Z,3.50
2023-05-10T13:58:01.354Z,3.17
2023-05-10T14:00:29.550Z,3.85
2023-05-10T14:02:57.778Z,3.03
2023-05-10T14:05:26.622Z,3.28
2023-05-10T14:07:55.196Z,3.67
2023-05-10T14:10:23.360Z,3.67
2023-05-10T14:12:51.942Z,3.42
2023-05-10T14:15:20.352Z,3.55
2023-05-10T14:17:49.012Z,4.43
2023-05-10T14:20:17.359Z,4.47
2023-05-10T14:22:46.702Z,4.20
2023-05-10T14:25:15.594Z,3.75
2023-05-10T14:27:44.284Z,4.05
2023-05-10T14:30:12.963Z,5.07
2023-05-10T14:32:41.147Z,3.78
2023-05-10T14:35:12.110Z,3.85
2023-05-10T14:37:41.461Z,3.63
2023-05-10T14:40:10.339Z,3.88
2023-05-10T14:42:38.487Z,3.10
2023-05-10T14:45:07.201Z,3.13
2023-05-10T14:47:35.336Z,3.53
2023-05-10T14:50:03.580Z,4.10
2023-05-10T14:52:34.236Z,3.75
2023-05-10T14:55:03.071Z,2.90
2023-05-10T14:57:31.265Z,2.30
2023-05-10T14:59:59.526Z,4.22
2023-05-10T15:02:28.277Z,3.90
2023-05-10T15:04:56.964Z,3.85
2023-05-10T15:07:25.756Z,3.80
2023-05-10T15:09:55.050Z,3.95
2023-05-10T15:12:23.382Z,4.45
2023-05-10T15:14:51.630Z,3.78
2023-05-10T15:17:19.771Z,3.95
2023-05-10T15:19:47.999Z,3.58
2023-05-10T15:22:16.325Z,4.07
2023-05-10T15:24:44.542Z,4.22
2023-05-10T15:27:12.820Z,3.90
2023-05-10T15:29:41.508Z,3.65
2023-05-10T15:32:09.632Z,3.05
2023-05-10T15:34:37.896Z,3.75
2023-05-10T15:37:06.199Z,3.00
2023-05-10T15:39:34.494Z,3.55
2023-05-10T15:42:04.012Z,2.85
2023-05-10T15:44:32.259Z,3.63
2023-05-10T15:47:00.734Z,3.72
2023-05-10T15:49:29.167Z,4.05
2023-05-10T15:51:57.437Z,3.70
2023-05-10T15:54:25.724Z,3.80
2023-05-10T15:56:55.082Z,3.63
2023-05-10T15:59:23.336Z,3.10
2023-05-10T16:01:52.631Z,3.13
2023-05-10T16:04:21.071Z,3.15
2023-05-10T16:06:49.495Z,3.65
2023-05-10T16:09:17.852Z,3.30
2023-05-10T16:11:46.285Z,3.10
2023-05-10T16:14:14.577Z,3.80
2023-05-10T16:16:43.460Z,3.67
2023-05-10T16:19:11.836Z,3.00
2023-05-10T16:21:40.160Z,5.47
2023-05-10T16:24:08.587Z,3.70
2023-05-10T16:26:41.005Z,3.58
2023-05-10T16:29:10.470Z,4.23
2023-05-10T16:31:39.118Z,3.90
2023-05-10T16:34:07.322Z,4.15
2023-05-10T16:36:35.559Z,4.55
2023-05-10T16:39:04.114Z,5.00
2023-05-10T16:41:35.616Z,4.53
2023-05-10T16:44:04.060Z,4.10
2023-05-10T16:46:33.205Z,4.18
2023-05-10T16:49:01.487Z,4.25
2023-05-10T16:51:29.709Z,4.10
2023-05-10T16:53:57.956Z,4.05
2023-05-10T16:56:26.706Z,4.68
2023-05-10T16:58:54.930Z,4.65
2023-05-10T17:01:25.782Z,4.28
2023-05-10T17:03:55.404Z,3.08
2023-05-10T17:06:23.913Z,2.83
2023-05-10T17:08:52.213Z,3.10
2023-05-10T17:11:21.871Z,3.45
2023-05-10T17:13:52.026Z,3.00
2023-05-10T17:16:21.395Z,3.25
2023-05-10T17:18:49.838Z,3.78
2023-05-10T17:21:18.215Z,3.88
2023-05-10T17:23:46.511Z,3.50
2023-05-10T17:26:14.833Z,4.55
2023-05-10T17:28:43.088Z,3.88
2023-05-10T17:31:11.782Z,4.40
2023-05-10T17:33:40.323Z,4.53
2023-05-10T17:36:08.834Z,4.60
2023-05-10T17:38:37.629Z,4.22
2023-05-10T17:41:07.528Z,4.97
2023-05-10T17:43:35.801Z,4.55
2023-05-10T17:46:04.140Z,4.63
2023-05-10T17:48:32.570Z,4.60
2023-05-10T17:51:00.840Z,5.55
2023-05-10T17:53:29.318Z,5.43
2023-05-10T17:55:59.039Z,6.35
2023-05-10T17:58:27.890Z,5.53
2023-05-10T18:00:57.643Z,5.60
2023-05-10T18:03:26.073Z,5.75
2023-05-10T18:05:55.296Z,5.88
2023-05-10T18:08:27.003Z,6.32
2023-05-10T18:10:55.392Z,5.93
2023-05-10T18:13:25.617Z,5.63
2023-05-10T18:15:53.972Z,7.38
2023-05-10T18:18:22.262Z,6.68
2023-05-10T18:20:56.502Z,8.40
2023-05-10T18:23:25.049Z,6.90
2023-05-10T18:25:53.343Z,6.35
2023-05-10T18:28:21.629Z,5.88
2023-05-10T18:30:51.222Z,5.93
2023-05-10T18:33:19.751Z,6.72
2023-05-10T18:35:48.097Z,6.03
2023-05-10T18:38:17.519Z,6.35
2023-05-10T18:40:46.878Z,6.28
2023-05-10T18:43:15.163Z,6.60
2023-05-10T18:45:43.971Z,7.28
2023-05-10T18:48:12.245Z,7.03
2023-05-10T18:50:40.562Z,7.40
2023-05-10T18:53:08.871Z,7.15
2023-05-10T18:55:37.225Z,7.72
2023-05-10T18:58:05.732Z,8.20
2023-05-10T19:00:34.118Z,8.70
2023-05-10T19:03:02.439Z,8.27
2023-05-10T19:05:31.803Z,9.27
2023-05-10T19:08:00.167Z,9.52
2023-05-10T19:10:28.532Z,9.77
2023-05-10T19:12:57.847Z,10.13
2023-05-10T19:15:27.385Z,10.05
2023-05-10T19:18:00.376Z,9.77
2023-05-10T19:20:29.636Z,9.88
2023-05-10T19:23:09.173Z,9.95
2023-05-10T19:25:39.456Z,9.93
2023-05-10T19:28:09.678Z,10.88
2023-05-10T19:30:38.424Z,10.40
2023-05-10T19:33:06.824Z,10.43
2023-05-10T19:35:36.074Z,11.13
2023-05-10T19:38:04.568Z,12.02
2023-05-10T19:40:32.815Z,11.73
2023-05-10T19:43:01.979Z,11.73
2023-05-10T19:45:31.516Z,11.85
2023-05-10T19:47:59.952Z,13.18
2023-05-10T19:50:29.222Z,12.68
2023-05-10T19:52:59.543Z,12.73
2023-05-10T19:55:32.327Z,11.95
2023-05-10T19:58:00.900Z,12.40
2023-05-10T20:00:29.582Z,12.80
2023-05-10T20:02:59.383Z,13.07
2023-05-10T20:05:28.837Z,13.05
2023-05-10T20:07:57.238Z,12.32
2023-05-10T20:10:27.152Z,12.65
2023-05-10T20:12:56.598Z,13.02
2023-05-10T20:15:26.075Z,13.00
2023-05-10T20:17:55.601Z,13.95
2023-05-10T20:20:25.404Z,14.27
2023-05-10T20:22:53.807Z,13.52
2023-05-10T20:25:22.137Z,13.73
2023-05-10T20:27:54.381Z,13.95
2023-05-10T20:30:23.149Z,13.67
2023-05-10T20:32:51.961Z,13.25
2023-05-10T20:35:20.456Z,13.05
2023-05-10T20:37:48.743Z,13.93
2023-05-10T20:40:17.457Z,13.48
2023-05-10T20:42:45.948Z,13.45
2023-05-10T20:45:14.251Z,14.10
2023-05-10T20:47:42.607Z,13.20
2023-05-10T20:50:12.174Z,14.90
2023-05-10T20:52:40.530Z,14.25
2023-05-10T20:55:09.610Z,13.98
2023-05-10T20:57:38.299Z,13.50
2023-05-10T21:00:07.379Z,15.20
2023-05-10T21:02:35.765Z,14.00
2023-05-10T21:05:04.286Z,15.73
2023-05-10T21:07:32.950Z,13.68
2023-05-10T21:10:01.249Z,14.43
2023-05-10T21:12:29.583Z,14.73
2023-05-10T21:14:57.851Z,13.48
2023-05-10T21:17:26.137Z,11.07
2023-05-10T21:19:54.366Z,9.75
2023-05-10T21:22:22.634Z,9.38
2023-05-10T21:24:50.850Z,6.95
2023-05-10T21:27:19.074Z,7.68
2023-05-10T21:29:47.313Z,6.00
2023-05-10T21:32:15.734Z,6.38
2023-05-10T21:34:43.968Z,6.22
2023-05-10T21:37:12.305Z,5.80
2023-05-10T21:39:40.521Z,5.47
2023-05-10T21:42:08.743Z,6.63
2023-05-10T21:44:38.659Z,6.60
2023-05-10T21:47:06.907Z,6.47
2023-05-10T21:49:35.480Z,6.75
2023-05-10T21:52:03.926Z,6.47
2023-05-10T21:54:32.181Z,8.32
2023-05-10T21:57:00.545Z,11.07
2023-05-10T21:59:28.767Z,12.55
2023-05-10T22:01:56.996Z,10.82
2023-05-10T22:04:25.403Z,13.13
2023-05-10T22:06:53.617Z,13.50
2023-05-10T22:09:24.299Z,14.38
2023-05-10T22:11:52.623Z,12.88
2023-05-10T22:14:21.563Z,13.32
2023-05-10T22:16:49.786Z,11.48
2023-05-10T22:19:18.157Z,11.50
2023-05-10T22:21:46.650Z,12.02
2023-05-10T22:24:15.088Z,10.75
2023-05-10T22:26:43.333Z,11.27
2023-05-10T22:29:11.898Z,10.00
2023-05-10T22:31:40.154Z,9.95
2023-05-10T22:34:08.430Z,8.25
2023-05-10T22:36:37.353Z,7.88
2023-05-10T22:39:05.634Z,7.28
2023-05-10T22:41:34.435Z,6.97
2023-05-10T22:44:04.912Z,7.18
2023-05-10T22:46:33.902Z,6.95
2023-05-10T22:49:02.592Z,7.10
2023-05-10T22:51:30.773Z,5.22
2023-05-10T22:53:59.283Z,4.30
2023-05-10T22:56:27.663Z,4.28
2023-05-10T22:58:57.650Z,4.05
2023-05-10T23:01:26.153Z,3.35
2023-05-10T23:03:54.377Z,2.72
2023-05-10T23:06:22.649Z,1.85
2023-05-10T23:08:50.990Z,1.90
2023-05-10T23:11:25.666Z,1.58
2023-05-10T23:13:53.868Z,1.38
2023-05-10T23:16:22.341Z,1.67
2023-05-10T23:18:50.607Z,1.92
2023-05-10T23:21:18.859Z,2.10
2023-05-10T23:23:47.217Z,2.20
2023-05-10T23:26:15.505Z,1.85
2023-05-10T23:28:43.671Z,1.90
2023-05-10T23:31:11.921Z,2.00
2023-05-10T23:33:40.347Z,1.45
2023-05-10T23:36:08.866Z,1.00
2023-05-10T23:38:39.444Z,0.80
2023-05-10T23:41:07.710Z,0.70
2023-05-10T23:43:35.933Z,0.50
2023-05-10T23:46:05.511Z,0.30
2023-05-10T23:48:33.759Z,0.55
2023-05-10T23:51:01.954Z,0.38
2023-05-10T23:53:30.189Z,0.40
2023-05-10T23:55:58.436Z,0.30
2023-05-10T23:58:26.671Z,0.40
